Time;durP1;ratioP1;P1;durP2;ratioP2;P2;SDS_P1;SDS_P2;PMS_P1;PMS_P2;Temp;Humidity;BMP_temperature;BMP_pressure;BME280_temperature;BME280_humidity;BME280_pressure;Samples;Min_cycle;Max_cycle;Signal;HPM_P1;HPM_P2
2024/01/22 00:00:28;;;;;;;10.18;6.05;;;-3.20;99.90;;;;;;5108826;28;20028;-80
2024/01/22 00:02:54;;;;;;;17.70;7.38;;;-2.30;99.90;;;;;;5108863;28;20030;-80
2024/01/22 00:05:20;;;;;;;12.63;6.43;;;-1.70;99.90;;;;;;5109376;28;20095;-82
2024/01/22 00:07:45;;;;;;;8.20;5.35;;;-2.00;99.90;;;;;;5111961;28;20028;-82
2024/01/22 00:10:12;;;;;;;9.23;6.18;;;-1.50;99.90;;;;;;5110118;28;20043;-81
2024/01/22 00:12:37;;;;;;;11.48;5.97;;;-3.10;99.90;;;;;;5096940;28;20020;-81
2024/01/22 00:15:03;;;;;;;10.27;5.78;;;-3.00;99.90;;;;;;5088465;28;20040;-80
2024/01/22 00:17:29;;;;;;;8.45;5.10;;;-3.00;99.90;;;;;;5096796;28;20099;-79
2024/01/22 00:19:55;;;;;;;11.88;5.00;;;-1.80;99.90;;;;;;5108093;28;20023;-79
2024/01/22 00:22:20;;;;;;;7.97;5.03;;;-2.00;99.90;;;;;;5098992;28;20024;-79
2024/01/22 00:24:46;;;;;;;9.60;4.88;;;-1.30;99.90;;;;;;5102576;28;20484;-80
2024/01/22 00:27:11;;;;;;;13.00;6.05;;;-3.10;99.90;;;;;;5111353;28;20015;-81
2024/01/22 00:29:37;;;;;;;13.48;6.32;;;-3.10;99.90;;;;;;5081846;28;20036;-79
2024/01/22 00:32:03;;;;;;;10.50;5.80;;;-2.40;99.90;;;;;;5082826;28;20484;-80
2024/01/22 00:34:29;;;;;;;8.38;5.32;;;-3.10;99.90;;;;;;5083087;28;20198;-80
2024/01/22 00:36:56;;;;;;;12.38;5.55;;;-3.20;99.90;;;;;;5086868;28;20040;-80
2024/01/22 00:39:21;;;;;;;11.45;6.15;;;-2.10;99.90;;;;;;5106716;28;20020;-81
2024/01/22 00:41:48;;;;;;;10.27;5.65;;;-2.80;99.90;;;;;;5102702;28;20062;-81
2024/01/22 00:44:14;;;;;;;8.82;5.63;;;-3.20;99.90;;;;;;5093735;28;20047;-80
2024/01/22 00:46:45;;;;;;;11.82;5.35;;;-3.00;99.90;;;;;;5098214;28;20028;-79
2024/01/22 00:49:38;;;;;;;10.90;5.43;;;-2.20;99.90;;;;;;5117762;28;20000;-79
2024/01/22 00:52:33;;;;;;;9.95;5.07;;;-1.80;99.90;;;;;;5113183;28;20008;-80
2024/01/22 00:54:59;;;;;;;10.60;5.72;;;-2.10;99.90;;;;;;5115236;28;20055;-80
2024/01/22 00:57:57;;;;;;;10.02;5.65;;;-1.90;99.90;;;;;;5116504;28;20036;-79
2024/01/22 01:00:31;;;;;;;13.80;5.75;;;-3.10;99.90;;;;;;5099731;28;20032;-80
2024/01/22 01:03:17;;;;;;;11.35;5.22;;;-3.20;99.90;;;;;;5113395;28;20024;-80
2024/01/22 01:06:01;;;;;;;11.68;6.25;;;-3.40;99.90;;;;;;5117123;28;20028;-80
2024/01/22 01:08:40;;;;;;;12.80;5.38;;;-4.30;99.90;;;;;;5095660;28;20098;-80
2024/01/22 01:11:31;;;;;;;7.75;4.00;;;-3.50;99.90;;;;;;5115887;28;20008;-79
2024/01/22 01:14:11;;;;;;;7.03;4.65;;;-3.30;99.90;;;;;;5116046;28;20043;-80
2024/01/22 01:16:46;;;;;;;7.15;4.88;;;-1.40;99.90;;;;;;5117503;28;20047;-80
2024/01/22 01:19:25;;;;;;;10.90;5.45;;;-2.10;99.90;;;;;;5108652;28;20040;-80
2024/01/22 01:21:52;;;;;;;9.87;5.10;;;-2.70;99.90;;;;;;5116381;28;20032;-80
2024/01/22 01:24:25;;;;;;;12.45;5.35;;;-3.40;99.90;;;;;;5114842;28;20084;-79
2024/01/22 01:26:56;;;;;;;11.32;4.47;;;-3.40;99.90;;;;;;5114992;28;20081;-79
2024/01/22 01:29:21;;;;;;;6.85;4.30;;;-1.60;99.90;;;;;;5097911;28;20024;-79
2024/01/22 01:31:47;;;;;;;7.20;4.45;;;-1.80;99.90;;;;;;5099256;28;20051;-80
2024/01/22 01:34:15;;;;;;;7.78;5.05;;;-1.60;99.90;;;;;;5093200;28;20036;-80
2024/01/22 01:36:42;;;;;;;11.27;5.93;;;-2.00;99.90;;;;;;5094975;28;20080;-82
2024/01/22 01:39:15;;;;;;;8.10;5.38;;;-2.50;99.90;;;;;;5055277;28;20033;-80
2024/01/22 01:41:51;;;;;;;10.98;5.85;;;-3.60;99.90;;;;;;5057259;28;20056;-81
2024/01/22 01:44:36;;;;;;;9.30;5.65;;;-2.70;99.90;;;;;;5058035;28;20021;-80
2024/01/22 01:47:09;;;;;;;11.38;5.40;;;-3.60;99.90;;;;;;5075460;28;20033;-80
2024/01/22 01:49:35;;;;;;;9.88;4.85;;;-3.60;99.90;;;;;;5058897;28;20028;-79
2024/01/22 01:52:14;;;;;;;10.55;5.15;;;-3.50;99.90;;;;;;5073378;28;20029;-80
2024/01/22 01:54:44;;;;;;;12.50;6.40;;;-3.40;99.90;;;;;;5040846;28;20037;-80
2024/01/22 01:57:10;;;;;;;;;;;-2.00;99.90;;;;;;5069787;28;20033;-80
2024/01/22 01:59:35;;;;;;;9.98;4.53;;;-2.20;99.90;;;;;;5048397;28;19908;-81
2024/01/22 02:02:01;;;;;;;10.80;4.93;;;-3.40;99.90;;;;;;5047856;28;20029;-80
2024/01/22 02:04:27;;;;;;;6.70;4.03;;;-1.90;99.90;;;;;;5048684;28;20393;-81
2024/01/22 02:06:52;;;;;;;4.60;3.08;;;-1.80;99.90;;;;;;5050301;28;20088;-80
2024/01/22 02:09:18;;;;;;;8.27;4.10;;;-2.70;99.90;;;;;;5051134;28;20025;-82
2024/01/22 02:11:46;;;;;;;10.27;3.92;;;-2.80;99.90;;;;;;5054903;28;20033;-81
2024/01/22 02:14:13;;;;;;;6.90;3.97;;;-3.40;99.90;;;;;;5060843;28;20101;-82
2024/01/22 02:16:39;;;;;;;4.95;3.45;;;-3.40;99.90;;;;;;5061595;28;20001;-81
2024/01/22 02:19:05;;;;;;;5.47;3.40;;;-2.10;99.90;;;;;;5061215;28;20061;-80
2024/01/22 02:21:33;;;;;;;5.22;3.50;;;-2.10;99.90;;;;;;5059781;28;20063;-83
2024/01/22 02:24:00;;;;;;;8.27;3.55;;;-3.30;99.90;;;;;;5059337;28;20052;-79
2024/01/22 02:26:25;;;;;;;7.35;3.35;;;-2.10;99.90;;;;;;5058066;28;20052;-81
2024/01/22 02:28:51;;;;;;;4.90;3.28;;;-3.50;99.90;;;;;;5072010;28;20123;-81
2024/01/22 02:31:18;;;;;;;6.63;3.97;;;-2.70;99.90;;;;;;5100793;28;20056;-78
2024/01/22 02:33:43;;;;;;;5.68;3.75;;;-2.90;99.90;;;;;;5098699;28;20074;-80
2024/01/22 02:36:09;;;;;;;9.45;4.30;;;-3.40;99.90;;;;;;5085000;28;20048;-82
2024/01/22 02:38:35;;;;;;;11.15;3.92;;;-3.40;99.90;;;;;;5104450;28;20024;-80
2024/01/22 02:41:00;;;;;;;7.30;3.70;;;-2.70;99.90;;;;;;5111577;28;20043;-79
2024/01/22 02:43:26;;;;;;;5.53;3.58;;;-3.70;99.90;;;;;;5105978;28;20044;-80
2024/01/22 02:45:52;;;;;;;7.25;4.75;;;-3.60;99.90;;;;;;5107585;28;20197;-81
2024/01/22 02:48:17;;;;;;;8.10;4.07;;;-2.70;99.90;;;;;;5109249;28;20028;-82
2024/01/22 02:50:43;;;;;;;8.85;4.95;;;-3.50;99.90;;;;;;5106170;28;20024;-81
2024/01/22 02:53:08;;;;;;;9.32;4.32;;;-3.40;99.90;;;;;;5105645;28;20028;-80
2024/01/22 02:55:34;;;;;;;7.35;3.60;;;-3.40;99.90;;;;;;5107877;28;20035;-81
2024/01/22 02:58:00;;;;;;;5.78;2.90;;;-3.40;99.90;;;;;;5107554;28;20388;-80
2024/01/22 03:00:25;;;;;;;3.85;2.75;;;-3.40;99.90;;;;;;5106409;28;20095;-80
2024/01/22 03:02:51;;;;;;;4.90;3.13;;;-1.70;99.90;;;;;;5103915;28;20027;-81
2024/01/22 03:05:17;;;;;;;4.30;3.10;;;-3.30;99.90;;;;;;5105852;28;20433;-79
2024/01/22 03:07:42;;;;;;;5.00;2.95;;;-2.30;99.90;;;;;;5101117;28;20024;-78
2024/01/22 03:10:08;;;;;;;5.45;2.80;;;-3.20;99.90;;;;;;5097646;28;20047;-83
2024/01/22 03:12:34;;;;;;;4.97;2.92;;;-3.20;99.90;;;;;;5106837;28;20042;-80
2024/01/22 03:15:00;;;;;;;12.07;3.65;;;-2.40;99.90;;;;;;5108916;28;20032;-82
2024/01/22 03:17:25;;;;;;;4.55;3.13;;;-3.10;99.90;;;;;;5108948;28;20028;-80
2024/01/22 03:19:51;;;;;;;4.72;2.97;;;-2.30;99.90;;;;;;5108187;28;20473;-79
2024/01/22 03:22:17;;;;;;;4.82;1.95;;;-3.10;99.90;;;;;;5081783;28;20114;-78
2024/01/22 03:24:46;;;;;;;3.80;2.60;;;-2.20;99.90;;;;;;5095830;28;20039;-78
2024/01/22 03:27:12;;;;;;;4.97;2.83;;;-2.90;99.90;;;;;;5096067;28;20073;-78
2024/01/22 03:29:37;;;;;;;6.35;2.72;;;-2.20;99.90;;;;;;5098456;28;20036;-80
2024/01/22 03:32:03;;;;;;;4.35;2.50;;;-2.60;99.90;;;;;;5102763;28;20147;-78
2024/01/22 03:34:29;;;;;;;4.85;2.45;;;-2.80;99.90;;;;;;5104366;28;20036;-78
2024/01/22 03:36:54;;;;;;;4.68;3.20;;;-2.80;99.90;;;;;;5107189;28;20016;-77
2024/01/22 03:39:20;;;;;;;10.27;4.47;;;-2.10;99.90;;;;;;5104711;28;20024;-79
2024/01/22 03:41:46;;;;;;;4.05;2.97;;;-2.60;99.90;;;;;;5102458;28;20473;-78
2024/01/22 03:44:11;;;;;;;3.95;2.85;;;-2.70;99.90;;;;;;5104989;28;20024;-77
2024/01/22 03:46:37;;;;;;;4.50;2.78;;;-2.80;99.90;;;;;;5106713;28;20031;-77
2024/01/22 03:49:03;;;;;;;5.50;3.65;;;-1.90;99.90;;;;;;5106639;28;20016;-78
2024/01/22 03:51:29;;;;;;;7.20;3.55;;;-2.70;99.90;;;;;;5108324;28;20058;-78
2024/01/22 03:53:54;;;;;;;5.00;2.80;;;-1.60;99.90;;;;;;5116411;28;20102;-78
2024/01/22 03:56:20;;;;;;;7.43;3.65;;;-1.40;99.90;;;;;;5117866;28;20055;-79
2024/01/22 03:58:46;;;;;;;5.57;3.38;;;-1.10;99.90;;;;;;5086835;28;20543;-78
2024/01/22 04:01:20;;;;;;;4.53;2.97;;;-1.60;99.90;;;;;;5104320;28;20024;-78
2024/01/22 04:03:46;;;;;;;6.10;3.05;;;-2.60;99.90;;;;;;5105782;28;20020;-78
2024/01/22 04:06:11;;;;;;;4.05;2.90;;;-1.70;99.90;;;;;;5089173;28;20028;-77
2024/01/22 04:08:37;;;;;;;5.72;3.10;;;-1.00;99.90;;;;;;5112114;28;20115;-79
2024/01/22 04:11:03;;;;;;;5.18;2.83;;;-2.50;99.90;;;;;;5115784;28;20069;-78
2024/01/22 04:13:29;;;;;;;6.03;3.20;;;-2.30;99.90;;;;;;5092596;28;20032;-78
2024/01/22 04:15:55;;;;;;;4.70;2.88;;;-2.30;99.90;;;;;;5104948;28;20043;-77
2024/01/22 04:18:20;;;;;;;5.20;3.40;;;-1.70;99.90;;;;;;5106185;28;20024;-77
2024/01/22 04:20:46;;;;;;;7.07;2.80;;;-0.90;99.90;;;;;;5105890;28;20054;-79
2024/01/22 04:23:12;;;;;;;4.60;3.15;;;-2.10;99.90;;;;;;5104713;28;20036;-78
2024/01/22 04:25:38;;;;;;;5.20;3.03;;;-1.60;99.90;;;;;;5106754;28;20031;-78
2024/01/22 04:28:04;;;;;;;3.00;2.35;;;-1.60;99.90;;;;;;5105502;28;20024;-78
2024/01/22 04:30:30;;;;;;;4.07;3.10;;;-2.40;99.90;;;;;;5106513;28;20052;-77
2024/01/22 04:32:55;;;;;;;2.45;2.17;;;-2.20;99.90;;;;;;5103538;28;20046;-78
2024/01/22 04:35:21;;;;;;;2.88;2.25;;;-2.10;99.90;;;;;;5101441;28;20043;-78
2024/01/22 04:37:47;;;;;;;14.27;3.97;;;-1.90;99.90;;;;;;5104137;28;20127;-78
2024/01/22 04:40:14;;;;;;;4.57;2.45;;;-2.10;99.90;;;;;;5103127;28;20099;-78
2024/01/22 04:42:46;;;;;;;2.38;2.10;;;-2.10;99.90;;;;;;5104157;28;20027;-77
2024/01/22 04:45:12;;;;;;;3.92;3.10;;;-2.00;99.90;;;;;;5105274;28;20053;-78
2024/01/22 04:47:37;;;;;;;5.28;2.20;;;-0.40;99.90;;;;;;5103957;28;20040;-78
2024/01/22 04:50:04;;;;;;;9.65;2.45;;;-1.60;99.90;;;;;;5101252;28;20039;-78
2024/01/22 04:52:31;;;;;;;5.72;1.80;;;-1.50;99.90;;;;;;5101813;28;20028;-78
2024/01/22 04:54:57;;;;;;;2.97;2.13;;;-1.20;99.90;;;;;;5099795;28;20407;-79
2024/01/22 04:57:23;;;;;;;3.58;2.30;;;-1.60;99.90;;;;;;5107384;28;20030;-81
2024/01/22 04:59:49;;;;;;;2.65;1.90;;;-1.00;99.90;;;;;;5110909;28;20032;-81
2024/01/22 05:02:16;;;;;;;3.90;1.92;;;-1.60;99.90;;;;;;5105273;28;20020;-80
2024/01/22 05:04:42;;;;;;;3.22;2.38;;;-1.40;99.90;;;;;;5101573;28;20034;-78
2024/01/22 05:07:08;;;;;;;5.22;2.83;;;-1.30;99.90;;;;;;5100432;28;20092;-77
2024/01/22 05:09:33;;;;;;;3.78;2.17;;;-1.20;99.90;;;;;;5101260;28;20035;-80
2024/01/22 05:12:02;;;;;;;5.70;2.60;;;-1.20;99.90;;;;;;5102347;28;20024;-78
2024/01/22 05:14:55;;;;;;;10.20;2.63;;;-1.40;99.90;;;;;;5103343;28;20032;-78
2024/01/22 05:17:21;;;;;;;4.18;2.65;;;-1.40;99.90;;;;;;5103879;28;20035;-77
2024/01/22 05:19:46;;;;;;;4.18;2.72;;;-1.20;99.90;;;;;;5104534;28;20028;-78
2024/01/22 05:22:18;;;;;;;5.20;2.42;;;-1.20;99.90;;;;;;5104796;28;20051;-77
2024/01/22 05:24:46;;;;;;;5.43;2.38;;;-1.20;99.90;;;;;;5105543;28;20028;-78
2024/01/22 05:27:15;;;;;;;3.70;2.70;;;-1.10;99.90;;;;;;5095491;28;20044;-77
2024/01/22 05:29:41;;;;;;;8.55;2.85;;;-1.00;99.90;;;;;;5060844;28;20032;-74
2024/01/22 05:32:19;;;;;;;3.45;2.92;;;-1.00;99.90;;;;;;5079360;28;20075;-77
2024/01/22 05:35:04;;;;;;;3.42;2.25;;;-1.00;99.90;;;;;;5098585;28;20058;-79
2024/01/22 05:38:12;;;;;;;5.07;2.30;;;-1.10;99.90;;;;;;5092350;28;20043;-76
2024/01/22 05:40:24;;;;;;;3.42;1.90;;;-1.00;99.90;;;;;;5086416;28;20128;-78
2024/01/22 05:42:50;;;;;;;5.03;3.10;;;-0.90;99.90;;;;;;5088146;28;20025;-77
2024/01/22 05:45:21;;;;;;;5.45;2.85;;;-0.90;99.90;;;;;;5088679;28;20024;-76
2024/01/22 05:47:56;;;;;;;3.97;2.90;;;-0.90;99.90;;;;;;5091445;28;20034;-74
2024/01/22 05:50:22;;;;;;;16.80;4.85;;;-0.80;99.90;;;;;;5072651;28;20086;-75
2024/01/22 05:52:48;;;;;;;4.55;2.85;;;-0.60;99.90;;;;;;5072640;28;20033;-74
2024/01/22 05:55:14;;;;;;;5.32;3.75;;;-0.60;99.90;;;;;;5071157;28;20488;-77
2024/01/22 05:57:40;;;;;;;4.22;2.58;;;-0.60;99.90;;;;;;5072752;28;20054;-75
2024/01/22 06:00:12;;;;;;;6.57;4.38;;;-0.60;99.90;;;;;;5071194;28;20028;-74
2024/01/22 06:02:39;;;;;;;6.82;4.00;;;-0.80;99.90;;;;;;5072673;28;20069;-74
2024/01/22 06:05:06;;;;;;;5.57;3.78;;;-0.90;99.90;;;;;;5070845;28;20534;-73
2024/01/22 06:07:31;;;;;;;5.55;3.58;;;-0.90;99.90;;;;;;5073282;28;20016;-74
2024/01/22 06:10:00;;;;;;;6.45;3.90;;;-0.80;99.90;;;;;;5072737;28;20032;-75
2024/01/22 06:12:32;;;;;;;10.27;6.07;;;-0.70;99.90;;;;;;5074056;28;20028;-74
2024/01/22 06:14:57;;;;;;;7.97;5.07;;;-0.60;99.90;;;;;;5074713;28;20040;-80
2024/01/22 06:17:24;;;;;;;12.93;7.03;;;-0.70;99.90;;;;;;5073568;28;20111;-76
2024/01/22 06:20:03;;;;;;;10.88;5.28;;;-0.80;99.90;;;;;;5072263;28;20162;-75
2024/01/22 06:22:33;;;;;;;11.23;5.37;;;-0.80;99.90;;;;;;5071346;28;20024;-75
2024/01/22 06:25:00;;;;;;;10.80;6.72;;;-0.90;99.90;;;;;;5076925;28;20111;-74
2024/01/22 06:27:26;;;;;;;14.55;7.47;;;-0.90;99.90;;;;;;5094265;28;20024;-74
2024/01/22 06:29:56;;;;;;;10.90;5.38;;;-0.90;99.90;;;;;;5096829;28;20028;-74
2024/01/22 06:32:30;;;;;;;7.38;4.38;;;-1.00;99.90;;;;;;5091817;28;20044;-76
2024/01/22 06:34:59;;;;;;;9.80;4.43;;;-1.10;99.90;;;;;;5092059;28;20028;-74
2024/01/22 06:37:34;;;;;;;18.55;7.78;;;-1.10;99.90;;;;;;5092079;28;20392;-74
2024/01/22 06:40:00;;;;;;;11.07;5.72;;;-1.10;99.90;;;;;;5092505;28;20107;-77
2024/01/22 06:42:30;;;;;;;9.73;5.25;;;-1.10;99.90;;;;;;5092847;28;20012;-76
2024/01/22 06:44:58;;;;;;;10.35;5.72;;;-1.00;99.90;;;;;;5094740;28;20024;-75
2024/01/22 06:47:29;;;;;;;16.60;6.00;;;-0.90;99.90;;;;;;5095165;28;20092;-75
2024/01/22 06:50:04;;;;;;;7.20;4.15;;;-0.80;99.90;;;;;;5096451;28;20028;-74
2024/01/22 06:52:30;;;;;;;5.70;4.05;;;-0.90;99.90;;;;;;5079355;28;20384;-75
2024/01/22 06:54:56;;;;;;;9.38;5.18;;;-1.00;99.90;;;;;;5093524;28;20480;-77
2024/01/22 06:57:28;;;;;;;8.50;4.05;;;-1.10;99.90;;;;;;5092657;28;20020;-74
2024/01/22 07:00:20;;;;;;;4.72;3.95;;;-1.10;99.90;;;;;;5094028;28;20047;-76
2024/01/22 07:02:52;;;;;;;11.73;6.13;;;-1.10;99.90;;;;;;5071399;28;20066;-77
2024/01/22 07:05:30;;;;;;;6.70;4.30;;;-1.10;99.90;;;;;;5092186;28;20056;-75
2024/01/22 07:07:58;;;;;;;5.90;3.97;;;-1.00;99.90;;;;;;5092676;28;20245;-75
2024/01/22 07:10:24;;;;;;;9.38;3.53;;;-1.10;99.90;;;;;;5091047;28;20039;-75
2024/01/22 07:12:52;;;;;;;6.63;3.30;;;-1.00;99.90;;;;;;5091535;28;20016;-75
2024/01/22 07:15:26;;;;;;;6.38;3.22;;;-0.90;99.90;;;;;;5093374;28;20039;-75
2024/01/22 07:17:52;;;;;;;4.20;3.10;;;-0.80;99.90;;;;;;5093432;28;20024;-73
2024/01/22 07:20:21;;;;;;;6.30;2.90;;;-0.70;99.90;;;;;;5090385;28;20031;-76
2024/01/22 07:22:47;;;;;;;3.08;2.35;;;-0.60;99.90;;;;;;5092603;28;20106;-74
2024/01/22 07:25:13;;;;;;;5.85;2.53;;;-0.70;99.90;;;;;;5084835;28;20028;-75
2024/01/22 07:27:39;;;;;;;5.32;2.83;;;-0.60;99.90;;;;;;5071451;28;20078;-77
2024/01/22 07:30:09;;;;;;;3.88;2.70;;;-0.60;99.90;;;;;;5069192;28;20393;-74
2024/01/22 07:32:36;;;;;;;3.92;2.78;;;-0.40;99.90;;;;;;5035573;28;20037;-76
2024/01/22 07:35:10;;;;;;;7.05;2.85;;;-0.30;99.90;;;;;;5032848;28;20072;-77
2024/01/22 07:37:42;;;;;;;3.72;2.75;;;-0.20;99.90;;;;;;5036084;28;20112;-74
2024/01/22 07:40:11;;;;;;;5.13;2.70;;;-0.20;99.90;;;;;;5052158;28;20219;-76
2024/01/22 07:42:39;;;;;;;4.55;2.95;;;-0.10;99.90;;;;;;5033115;28;20029;-75
2024/01/22 07:45:10;;;;;;;6.03;3.08;;;0.00;99.90;;;;;;5033720;28;20028;-75
2024/01/22 07:47:36;;;;;;;6.93;4.45;;;-0.10;99.90;;;;;;5033644;28;20119;-74
2024/01/22 07:50:14;;;;;;;9.18;4.70;;;-0.20;99.90;;;;;;5051541;28;20036;-75
2024/01/22 07:52:40;;;;;;;7.70;4.80;;;-0.10;99.90;;;;;;5051229;28;20047;-79
2024/01/22 07:55:12;;;;;;;9.90;4.82;;;0.00;99.90;;;;;;5033543;28;20059;-76
2024/01/22 07:57:39;;;;;;;8.98;4.60;;;0.00;99.90;;;;;;5035849;28;20029;-74
2024/01/22 08:00:11;;;;;;;8.57;6.32;;;0.10;99.90;;;;;;5035721;28;20029;-75
2024/01/22 08:02:39;;;;;;;15.23;8.60;;;0.10;99.90;;;;;;5052249;28;20084;-74
2024/01/22 08:05:06;;;;;;;11.75;6.85;;;0.10;99.90;;;;;;5034070;28;20377;-74
2024/01/22 08:07:32;;;;;;;16.77;9.43;;;0.10;99.90;;;;;;5053158;28;20027;-78
2024/01/22 08:09:58;;;;;;;11.02;5.85;;;0.40;99.90;;;;;;5052647;28;20052;-75
2024/01/22 08:12:26;;;;;;;5.97;4.63;;;0.90;99.90;;;;;;5035138;28;20091;-74
2024/01/22 08:14:52;;;;;;;0.90;0.90;;;1.80;99.90;;;;;;5035904;28;20493;-76
2024/01/22 08:17:24;;;;;;;1.27;0.40;;;3.30;99.90;;;;;;5035933;28;20036;-75
2024/01/22 08:19:49;;;;;;;0.13;0.13;;;6.00;99.90;;;;;;5032933;28;20181;-74
2024/01/22 08:22:15;;;;;;;0.20;0.20;;;7.40;99.90;;;;;;5051002;28;20217;-76
2024/01/22 08:24:42;;;;;;;0.00;0.00;;;8.50;99.90;;;;;;5055394;28;20029;-79
2024/01/22 08:27:08;;;;;;;0.20;0.20;;;9.30;99.90;;;;;;5070629;28;20047;-83
2024/01/22 08:29:34;;;;;;;0.50;0.17;;;9.70;99.90;;;;;;5070979;28;20457;-76
2024/01/22 08:31:59;;;;;;;0.75;0.20;;;10.10;99.90;;;;;;5082732;28;20047;-77
2024/01/22 08:34:25;;;;;;;0.45;0.10;;;10.10;99.90;;;;;;5088453;28;20559;-74
2024/01/22 08:36:51;;;;;;;0.10;0.10;;;10.20;99.90;;;;;;5080882;28;20017;-77
2024/01/22 08:39:16;;;;;;;0.65;0.03;;;10.60;99.90;;;;;;5067436;28;20028;-81
2024/01/22 08:41:42;;;;;;;0.30;0.10;;;10.60;99.90;;;;;;5067973;28;20654;-73
2024/01/22 08:44:08;;;;;;;0.10;0.10;;;10.60;99.90;;;;;;5068134;28;20020;-72
2024/01/22 08:46:34;;;;;;;0.10;0.10;;;10.60;99.90;;;;;;5078115;28;20030;-73
2024/01/22 08:49:00;;;;;;;0.10;0.10;;;10.70;99.90;;;;;;5089764;28;20028;-74
2024/01/22 08:51:25;;;;;;;0.10;0.10;;;10.90;99.90;;;;;;5086864;28;20073;-74
2024/01/22 08:53:51;;;;;;;0.47;0.47;;;11.00;99.80;;;;;;5068208;28;20020;-74
2024/01/22 08:56:17;;;;;;;0.30;0.20;;;11.00;99.60;;;;;;5067109;28;20032;-73
2024/01/22 08:58:42;;;;;;;0.70;0.13;;;11.10;99.70;;;;;;5068409;28;20037;-72
2024/01/22 09:01:08;;;;;;;0.10;0.10;;;11.30;99.40;;;;;;5068951;28;20032;-73
2024/01/22 09:03:34;;;;;;;0.20;0.20;;;11.50;98.70;;;;;;5067075;28;20027;-74
2024/01/22 09:06:00;;;;;;;0.32;0.10;;;11.50;98.80;;;;;;5071392;28;20033;-73
2024/01/22 09:08:26;;;;;;;0.20;0.20;;;11.60;98.50;;;;;;5069134;28;20052;-74
2024/01/22 09:10:52;;;;;;;0.13;0.10;;;11.70;98.40;;;;;;5068085;28;20043;-74
2024/01/22 09:13:20;;;;;;;0.10;0.10;;;11.60;98.60;;;;;;5068697;28;20423;-75
2024/01/22 09:15:49;;;;;;;0.20;0.20;;;11.50;99.10;;;;;;5066727;28;20559;-75
2024/01/22 09:18:15;;;;;;;1.55;0.17;;;11.50;98.50;;;;;;5068595;28;20024;-77
2024/01/22 09:20:41;;;;;;;0.10;0.10;;;11.70;98.10;;;;;;5070058;28;20126;-76
2024/01/22 09:23:09;;;;;;;0.10;0.10;;;11.80;98.30;;;;;;5088893;28;20046;-77
2024/01/22 09:25:36;;;;;;;0.40;0.40;;;11.70;98.40;;;;;;5077962;28;20473;-77
2024/01/22 09:28:02;;;;;;;0.10;0.10;;;11.70;98.30;;;;;;5066905;28;20296;-75
2024/01/22 09:30:28;;;;;;;0.30;0.10;;;11.70;98.80;;;;;;5063829;28;20064;-72
2024/01/22 09:32:57;;;;;;;0.20;0.10;;;11.70;98.90;;;;;;5048590;28;20040;-74
2024/01/22 09:35:23;;;;;;;0.20;0.20;;;11.60;99.10;;;;;;5051401;28;20033;-75
2024/01/22 09:37:49;;;;;;;0.15;0.15;;;11.90;98.40;;;;;;5052002;28;20032;-74
2024/01/22 09:40:15;;;;;;;1.15;0.30;;;11.90;98.50;;;;;;5075674;28;20390;-76
2024/01/22 09:42:42;;;;;;;0.20;0.17;;;11.90;98.60;;;;;;5075376;28;20045;-75
2024/01/22 09:45:08;;;;;;;0.32;0.20;;;11.90;97.90;;;;;;5063451;28;20096;-74
2024/01/22 09:47:48;;;;;;;0.30;0.20;;;12.00;98.20;;;;;;5050211;28;20044;-76
2024/01/22 09:50:14;;;;;;;0.17;0.08;;;12.10;98.50;;;;;;5049507;28;20029;-75
2024/01/22 09:52:45;;;;;;;0.30;0.25;;;12.20;97.70;;;;;;5067915;28;20527;-75
2024/01/22 09:59:17;;;;;;;0.57;0.30;;;12.20;98.20;;;;;;5031619;28;20029;-76
2024/01/22 10:01:50;;;;;;;5.38;1.63;;;12.30;97.60;;;;;;5053271;28;20043;-75
2024/01/22 10:04:17;;;;;;;0.47;0.17;;;12.20;98.00;;;;;;5060908;28;20025;-76
2024/01/22 10:06:48;;;;;;;0.35;0.30;;;12.30;97.30;;;;;;5054442;28;20021;-75
2024/01/22 10:09:15;;;;;;;0.25;0.15;;;12.60;96.40;;;;;;5058266;28;20228;-76
2024/01/22 10:11:48;;;;;;;0.28;0.00;;;12.80;95.90;;;;;;5070427;28;20027;-77
2024/01/22 10:14:55;;;;;;;0.10;0.10;;;12.90;95.10;;;;;;5042639;28;20040;-78
2024/01/22 10:17:45;;;;;;;0.08;0.08;;;13.10;95.40;;;;;;5043377;28;20055;-76
2024/01/22 10:20:12;;;;;;;0.10;0.08;;;13.20;93.40;;;;;;5028041;28;20024;-77
2024/01/22 10:22:38;;;;;;;0.17;0.10;;;13.30;92.60;;;;;;5028043;28;20036;-76
2024/01/22 10:25:17;;;;;;;0.45;0.45;;;13.40;92.60;;;;;;5053090;28;20021;-77
2024/01/22 10:28:16;;;;;;;;;;;;;;;;;;;;;
2024/01/22 10:30:46;;;;;;;0.30;0.20;;;13.30;92.70;;;;;;5064785;28;20399;-77
2024/01/22 10:33:44;;;;;;;0.20;0.20;;;13.40;92.10;;;;;;5064307;28;20040;-76
2024/01/22 10:37:13;;;;;;;0.10;0.10;;;13.70;91.10;;;;;;5048828;28;20059;-77
2024/01/22 10:48:44;;;;;;;;;;;;;;;;;;;;;
2024/01/22 10:51:41;;;;;;;2.75;2.35;;;13.40;87.00;;;;;;4878639;29;20041;-76
2024/01/22 10:54:07;;;;;;;11.65;8.02;;;12.60;90.10;;;;;;4876752;29;20046;-77
2024/01/22 10:56:35;;;;;;;13.63;8.25;;;11.00;83.80;;;;;;4944259;29;20201;-77
2024/01/22 10:59:10;;;;;;;14.23;9.13;;;9.20;86.70;;;;;;4984202;28;20025;-79
2024/01/22 11:01:59;;;;;;;17.42;10.32;;;7.70;92.70;;;;;;5059280;28;20074;-73
2024/01/22 11:04:32;;;;;;;15.10;8.98;;;6.60;99.90;;;;;;5057146;28;20399;-76
2024/01/22 11:07:25;;;;;;;19.52;9.13;;;5.70;99.90;;;;;;5051637;28;20032;-74
2024/01/22 11:09:55;;;;;;;20.73;9.60;;;5.20;99.90;;;;;;5076274;28;20242;-75
2024/01/22 11:13:06;;;;;;;13.80;8.48;;;4.80;99.90;;;;;;5080577;28;20031;-75
2024/01/22 11:15:32;;;;;;;17.38;8.65;;;4.50;99.90;;;;;;5069113;28;20041;-77
2024/01/22 11:17:58;;;;;;;16.35;9.57;;;4.30;99.90;;;;;;5072615;28;20066;-77
2024/01/22 11:20:24;;;;;;;18.08;10.65;;;4.20;99.90;;;;;;5062371;28;20032;-76
2024/01/22 11:23:13;;;;;;;20.30;11.52;;;4.20;99.90;;;;;;5052781;28;20050;-77
2024/01/22 11:25:39;;;;;;;20.97;10.33;;;4.20;99.90;;;;;;5071663;28;20032;-75
2024/01/22 11:28:15;;;;;;;16.92;9.45;;;4.40;99.90;;;;;;5078437;28;20118;-75
2024/01/22 11:34:31;;;;;;;16.90;9.70;;;4.40;99.90;;;;;;5049940;28;20075;-77
2024/01/22 11:36:57;;;;;;;20.90;10.57;;;4.50;99.90;;;;;;5044144;28;20032;-77
2024/01/22 11:39:42;;;;;;;21.77;10.10;;;4.50;99.90;;;;;;5060800;28;20134;-77
2024/01/22 11:45:56;;;;;;;23.83;11.77;;;4.50;99.90;;;;;;4998041;28;20042;-77
2024/01/22 11:48:37;;;;;;;21.52;12.02;;;4.60;99.90;;;;;;5000303;28;20022;-75
2024/01/22 11:51:05;;;;;;;26.38;11.35;;;4.60;99.90;;;;;;5000506;28;20098;-77
2024/01/22 11:53:34;;;;;;;22.35;12.02;;;4.60;99.90;;;;;;4997469;28;20271;-78
2024/01/22 11:56:05;;;;;;;18.85;11.00;;;4.70;99.90;;;;;;5020372;28;20403;-78
2024/01/22 11:58:32;;;;;;;23.73;10.45;;;4.80;99.90;;;;;;5060035;28;20025;-77
2024/01/22 12:00:59;;;;;;;19.90;10.25;;;5.00;99.90;;;;;;5042048;28;20382;-78
2024/01/22 12:03:29;;;;;;;18.92;12.35;;;5.10;99.90;;;;;;5062063;28;20325;-78
2024/01/22 12:06:07;;;;;;;18.48;9.93;;;5.20;99.90;;;;;;5043276;28;20047;-78
2024/01/22 12:08:34;;;;;;;18.10;10.65;;;5.30;99.90;;;;;;5076000;28;20020;-80
2024/01/22 12:11:09;;;;;;;20.08;11.13;;;5.40;99.90;;;;;;5064475;28;20013;-77
2024/01/22 12:13:37;;;;;;;16.48;9.00;;;5.40;99.90;;;;;;5063802;28;20074;-77
2024/01/22 12:16:03;;;;;;;22.02;12.80;;;5.90;99.90;;;;;;5062821;28;20401;-76
2024/01/22 12:18:29;;;;;;;22.55;10.73;;;5.80;99.90;;;;;;5063951;28;20021;-78
2024/01/22 12:20:54;;;;;;;20.88;11.60;;;6.30;99.90;;;;;;5068142;28;20356;-78
2024/01/22 12:23:34;;;;;;;24.58;10.25;;;6.50;99.90;;;;;;5066140;28;20011;-77
2024/01/22 12:26:01;;;;;;;18.63;10.20;;;6.70;99.90;;;;;;5051523;28;20033;-80
2024/01/22 12:28:26;;;;;;;26.70;12.90;;;6.70;99.90;;;;;;5063538;28;20020;-78
2024/01/22 12:31:03;;;;;;;17.42;9.75;;;7.00;99.90;;;;;;5055861;28;20052;-77
2024/01/22 12:33:31;;;;;;;8.35;4.90;;;7.40;99.90;;;;;;5074750;28;20028;-80
2024/01/22 12:36:16;;;;;;;13.95;7.32;;;7.60;99.90;;;;;;5069521;28;20449;-81
2024/01/22 12:38:53;;;;;;;28.95;13.50;;;7.80;99.90;;;;;;5069485;28;20393;-79
2024/01/22 12:41:24;;;;;;;18.27;9.65;;;7.80;99.90;;;;;;5068444;28;20039;-80
2024/01/22 12:43:56;;;;;;;8.43;4.60;;;7.90;99.90;;;;;;5068657;28;20016;-80
2024/01/22 12:46:22;;;;;;;33.33;16.30;;;7.90;99.90;;;;;;5068802;28;20166;-82
2024/01/22 12:48:49;;;;;;;26.00;14.18;;;7.70;99.90;;;;;;5068742;28;20111;-79
2024/01/22 12:51:18;;;;;;;25.05;14.68;;;7.30;99.90;;;;;;5072678;28;20024;-77
2024/01/22 12:53:46;;;;;;;30.88;21.85;;;7.10;99.90;;;;;;5088430;28;20024;-79
2024/01/22 12:56:12;;;;;;;16.33;10.45;;;6.60;99.90;;;;;;5088939;28;20036;-77
2024/01/22 12:58:38;;;;;;;19.63;12.00;;;6.20;99.90;;;;;;5089815;28;20046;-77
2024/01/22 13:01:07;;;;;;;17.70;10.93;;;6.00;99.90;;;;;;5085628;28;20028;-77
2024/01/22 13:03:33;;;;;;;25.70;14.95;;;5.60;99.90;;;;;;5068155;28;20021;-77
2024/01/22 13:05:59;;;;;;;27.60;14.10;;;5.40;99.90;;;;;;5067626;28;20558;-78
2024/01/22 13:08:25;;;;;;;22.17;12.93;;;5.20;99.90;;;;;;5069913;28;20024;-77
2024/01/22 13:10:50;;;;;;;19.55;12.27;;;5.30;99.90;;;;;;5074175;28;20028;-78
2024/01/22 13:13:16;;;;;;;21.63;11.70;;;5.30;99.90;;;;;;5089176;28;20031;-77
2024/01/22 13:15:42;;;;;;;17.63;10.55;;;5.40;99.90;;;;;;5086180;28;20047;-77
2024/01/22 13:18:08;;;;;;;23.42;12.02;;;5.40;99.90;;;;;;5067885;28;20033;-77
2024/01/22 13:20:35;;;;;;;17.63;10.25;;;5.40;99.90;;;;;;5068032;28;20029;-78